Time;durP1;ratioP1;P1;durP2;ratioP2;P2;SDS_P1;SDS_P2;PMS_P1;PMS_P2;Temp;Humidity;BMP_temperature;BMP_pressure;BME280_temperature;BME280_humidity;BME280_pressure;Samples;Min_cycle;Max_cycle;Signal;HPM_P1;HPM_P2
2023/07/12 00:02:00;;;;;;;19.45;14.38;;;;;;;29.90;61.12;100855.72;5034858;28;69372;-47
2023/07/12 00:04:32;;;;;;;18.30;15.25;;;;;;;29.96;62.53;100857.56;5031445;28;65175;-48
2023/07/12 00:07:04;;;;;;;27.95;15.18;;;;;;;30.00;65.27;100842.56;5032013;28;69419;-47
2023/07/12 00:09:35;;;;;;;30.83;14.48;;;;;;;29.97;68.40;100838.41;5032596;28;66039;-45
2023/07/12 00:12:07;;;;;;;27.70;17.15;;;;;;;30.04;73.15;100855.44;5029721;28;69970;-45
2023/07/12 00:14:38;;;;;;;39.15;19.85;;;;;;;30.11;72.52;100847.28;5034858;28;66328;-45
2023/07/12 00:17:10;;;;;;;34.50;22.10;;;;;;;29.77;73.53;100789.81;5031836;28;70123;-44
2023/07/12 00:19:41;;;;;;;43.72;23.65;;;;;;;30.13;73.80;100847.91;5034606;28;66239;-44
2023/07/12 00:22:13;;;;;;;36.40;19.33;;;;;;;30.19;75.81;100855.16;5037547;28;70024;-44
2023/07/12 00:24:43;;;;;;;22.57;17.30;;;;;;;30.23;72.82;100861.84;5037862;28;66319;-44
2023/07/12 00:27:14;;;;;;;25.15;15.85;;;;;;;30.26;76.55;100857.88;5038594;28;69875;-46
2023/07/12 00:29:45;;;;;;;27.60;15.63;;;;;;;30.33;73.18;100864.06;5036816;28;66445;-41
2023/07/12 00:32:16;;;;;;;20.17;14.93;;;;;;;30.33;75.61;100858.63;5035762;28;69497;-43
2023/07/12 00:34:47;;;;;;;21.10;15.07;;;;;;;30.34;75.66;100848.63;5032175;28;66205;-42
2023/07/12 00:37:19;;;;;;;24.02;15.20;;;;;;;30.43;75.31;100863.59;5036301;28;69637;-42
2023/07/12 00:39:50;;;;;;;25.35;14.73;;;;;;;30.45;75.18;100856.06;5029266;28;65645;-42
2023/07/12 00:42:35;;;;;;;27.17;14.68;;;;;;;30.49;75.71;100866.25;5030715;28;70422;-42
2023/07/12 00:45:06;;;;;;;18.83;13.90;;;;;;;30.48;76.10;100858.38;5034688;28;65930;-45
2023/07/12 00:47:37;;;;;;;15.05;11.63;;;;;;;30.66;69.65;100852.19;5032901;28;69904;-48
2023/07/12 00:50:20;;;;;;;15.13;10.93;;;;;;;30.04;68.86;100757.25;5034537;28;67195;-47
2023/07/12 00:52:52;;;;;;;10.20;9.48;;;;;;;30.76;67.92;100847.13;5031594;28;70203;-45
2023/07/12 00:55:56;;;;;;;14.55;9.75;;;;;;;30.71;67.27;100855.06;5031371;28;67001;-48
2023/07/12 00:58:34;;;;;;;13.32;9.30;;;;;;;30.32;66.79;100769.56;5030617;28;69806;-47
2023/07/12 01:01:07;;;;;;;9.77;8.82;;;;;;;30.85;66.36;100851.22;5034426;28;66762;-48
2023/07/12 01:03:44;;;;;;;10.52;8.90;;;;;;;30.39;66.23;100775.75;5024083;28;70516;-48
2023/07/12 01:06:18;;;;;;;9.55;8.75;;;;;;;30.80;65.95;100834.81;5036930;28;65702;-47
2023/07/12 01:08:50;;;;;;;11.57;8.50;;;;;;;30.97;65.84;100858.63;5030924;28;71103;-47
2023/07/12 01:11:21;;;;;;;10.15;8.43;;;;;;;30.49;65.75;100781.50;5031173;28;65716;-47
2023/07/12 01:13:53;;;;;;;11.88;8.65;;;;;;;30.99;65.76;100859.25;5037065;28;69581;-48
2023/07/12 01:16:25;;;;;;;8.70;7.82;;;;;;;30.39;65.52;100759.50;5034410;28;67251;-48
2023/07/12 01:18:57;;;;;;;8.30;7.53;;;;;;;30.98;65.34;100850.31;5037133;28;70810;-48
2023/07/12 01:21:31;;;;;;;9.17;7.80;;;;;;;30.97;64.97;100859.47;5027110;28;66601;-48
2023/07/12 01:24:02;;;;;;;9.20;8.38;;;;;;;31.08;65.05;100861.44;5034572;28;69727;-47
2023/07/12 01:26:39;;;;;;;8.63;7.93;;;;;;;31.08;65.13;100882.28;5038121;28;66668;-46
2023/07/12 01:29:12;;;;;;;7.90;7.22;;;;;;;30.48;65.15;100769.03;5035082;28;70585;-46
2023/07/12 01:31:45;;;;;;;8.52;7.82;;;;;;;31.11;64.74;100871.84;5038730;28;66816;-47
2023/07/12 01:34:18;;;;;;;8.48;7.68;;;;;;;31.03;64.62;100853.16;5037359;28;70355;-46
2023/07/12 01:36:49;;;;;;;8.02;7.43;;;;;;;31.04;64.53;100857.53;5037732;28;66795;-47
2023/07/12 01:39:20;;;;;;;7.22;6.72;;;;;;;31.20;64.42;100882.41;5035917;28;70436;-47
2023/07/12 01:41:51;;;;;;;8.67;7.77;;;;;;;31.20;64.59;100890.53;5036034;28;66555;-51
2023/07/12 01:44:22;;;;;;;7.50;6.95;;;;;;;31.13;64.42;100879.75;5037143;28;70668;-47
2023/07/12 01:46:55;;;;;;;8.40;7.83;;;;;;;31.23;64.66;100892.78;5039774;28;66908;-48
2023/07/12 01:49:27;;;;;;;7.97;7.47;;;;;;;31.23;64.29;100890.06;5030734;28;70556;-48
2023/07/12 01:51:58;;;;;;;9.43;7.37;;;;;;;31.26;64.28;100895.06;5033692;28;65526;-48
2023/07/12 01:54:29;;;;;;;8.82;7.05;;;;;;;31.19;64.40;100878.03;5034239;28;70276;-47
2023/07/12 01:57:01;;;;;;;6.60;6.20;;;;;;;31.28;64.53;100888.34;5033491;28;65767;-47
2023/07/12 01:59:32;;;;;;;7.97;7.28;;;;;;;31.25;64.26;100887.97;5028855;28;70830;-47
2023/07/12 02:02:03;;;;;;;7.70;7.10;;;;;;;31.33;64.38;100891.22;5032831;28;66865;-47
2023/07/12 02:04:35;;;;;;;8.27;7.57;;;;;;;31.34;64.11;100897.47;5037050;28;69399;-47
2023/07/12 02:07:06;;;;;;;7.97;7.47;;;;;;;31.34;64.26;100897.47;5034641;28;66233;-48
2023/07/12 02:09:41;;;;;;;7.80;7.25;;;;;;;31.12;64.00;100857.25;5035640;28;70192;-47
2023/07/12 02:12:12;;;;;;;7.22;6.63;;;;;;;31.42;63.73;100899.94;5036979;28;66589;-47
2023/07/12 02:14:43;;;;;;;7.47;6.85;;;;;;;31.44;63.75;100897.84;5039313;28;70576;-47
2023/07/12 02:17:14;;;;;;;7.57;7.07;;;;;;;31.43;63.97;100900.78;5033223;28;65554;-46
2023/07/12 02:19:45;;;;;;;8.82;6.97;;;;;;;31.48;63.78;100904.50;5032095;28;70067;-47
2023/07/12 02:22:19;;;;;;;7.88;7.15;;;;;;;31.43;63.74;100890.78;5030912;28;66311;-47
2023/07/12 02:24:50;;;;;;;7.28;6.75;;;;;;;31.53;63.67;100899.19;5038948;28;70359;-48
2023/07/12 02:27:25;;;;;;;8.15;7.50;;;;;;;31.55;63.69;100897.09;5036530;28;66814;-47
2023/07/12 02:29:57;;;;;;;7.18;6.68;;;;;;;31.57;63.59;100886.88;5037250;28;70763;-47
2023/07/12 02:32:32;;;;;;;9.30;6.75;;;;;;;31.59;63.64;100890.19;5033332;28;66178;-47
2023/07/12 02:35:08;;;;;;;7.60;6.82;;;;;;;31.59;63.56;100883.91;5038257;28;70299;-47
2023/07/12 02:37:40;;;;;;;7.80;7.18;;;;;;;31.63;63.32;100878.88;5034594;28;66141;-47
2023/07/12 02:40:16;;;;;;;6.90;6.50;;;;;;;31.66;63.94;100873.84;5038036;28;70602;-47
2023/07/12 02:42:49;;;;;;;7.97;7.30;;;;;;;31.61;63.44;100860.94;5037245;28;65631;-48
2023/07/12 02:45:24;;;;;;;8.52;7.50;;;;;;;31.68;63.28;100860.03;5034238;28;69318;-47
2023/07/12 02:47:55;;;;;;;8.45;7.63;;;;;;;31.60;63.15;100845.72;5036661;28;67189;-47
2023/07/12 02:50:26;;;;;;;8.10;7.38;;;;;;;31.76;62.95;100862.44;5034818;28;70300;-47
2023/07/12 02:52:57;;;;;;;8.52;7.82;;;;;;;31.75;63.38;100852.66;5038107;28;66513;-46
2023/07/12 02:55:28;;;;;;;7.85;7.18;;;;;;;31.72;63.09;100848.50;5038988;28;70207;-47
2023/07/12 02:58:00;;;;;;;7.40;6.90;;;;;;;31.83;63.20;100855.06;5032878;28;66678;-47
2023/07/12 03:00:31;;;;;;;6.93;6.43;;;;;;;31.81;62.87;100860.69;5036685;28;70262;-47
2023/07/12 03:03:02;;;;;;;7.43;6.85;;;;;;;31.87;62.73;100856.25;5035797;28;65025;-46
2023/07/12 03:05:39;;;;;;;8.57;6.35;;;;;;;31.65;63.04;100819.81;5029099;28;70621;-47
2023/07/12 03:08:10;;;;;;;6.45;6.05;;;;;;;31.93;62.92;100841.81;5032429;28;65978;-47
2023/07/12 03:10:40;;;;;;;6.85;6.25;;;;;;;31.87;62.85;100831.84;5032898;28;69571;-48
2023/07/12 03:13:11;;;;;;;6.70;6.30;;;;;;;31.98;62.83;100839.25;5036516;28;66319;-46
2023/07/12 03:15:43;;;;;;;7.07;6.43;;;;;;;31.93;62.79;100836.41;5031364;28;69641;-47
2023/07/12 03:18:14;;;;;;;7.10;6.50;;;;;;;31.94;62.77;100820.94;5034504;28;65667;-46
2023/07/12 03:20:45;;;;;;;6.28;5.88;;;;;;;32.05;62.76;100840.00;5030141;28;70112;-48
2023/07/12 03:23:17;;;;;;;6.60;6.00;;;;;;;31.49;62.73;100738.06;5036633;28;66529;-48
2023/07/12 03:25:49;;;;;;;6.13;5.70;;;;;;;31.44;62.87;100718.94;5033138;28;70147;-47
2023/07/12 03:28:20;;;;;;;6.50;6.00;;;;;;;32.14;62.62;100826.09;5030873;28;66613;-47
2023/07/12 03:31:01;;;;;;;6.10;5.70;;;;;;;32.01;62.65;100806.25;5034537;28;69038;-47
2023/07/12 03:33:33;;;;;;;6.47;6.05;;;;;;;32.21;62.51;100824.97;5037616;28;66244;-47
2023/07/12 03:36:05;;;;;;;6.47;6.07;;;;;;;32.25;62.75;100825.31;5032810;28;70677;-46
2023/07/12 03:38:36;;;;;;;6.10;5.70;;;;;;;32.28;62.31;100822.13;5027740;28;65396;-47
2023/07/12 03:41:10;;;;;;;6.95;6.53;;;;;;;31.87;62.55;100749.63;5032917;28;69804;-46
2023/07/12 03:43:41;;;;;;;6.95;6.35;;;;;;;32.29;62.31;100807.53;5034977;28;65864;-46
2023/07/12 03:46:13;;;;;;;6.63;6.17;;;;;;;32.34;62.05;100814.94;5035874;28;69275;-47
2023/07/12 03:48:45;;;;;;;7.00;6.50;;;;;;;32.36;62.20;100808.22;5035012;28;65765;-47
2023/07/12 03:51:18;;;;;;;7.47;5.57;;;;;;;32.40;62.26;100809.44;5031705;28;69214;-46
2023/07/12 03:53:49;;;;;;;6.82;6.35;;;;;;;32.43;62.19;100814.41;5030131;28;67051;-47
2023/07/12 03:56:21;;;;;;;8.02;6.20;;;;;;;32.17;61.66;100774.06;5026344;28;70295;-47
2023/07/12 03:58:52;;;;;;;6.80;6.03;;;;;;;32.43;62.21;100799.97;5033913;28;66203;-47
2023/07/12 04:01:24;;;;;;;8.45;6.18;;;;;;;32.51;62.03;100798.84;5034078;28;69800;-46
2023/07/12 04:03:55;;;;;;;5.95;5.40;;;;;;;32.55;62.32;100800.06;5024229;28;65418;-47
2023/07/12 04:06:26;;;;;;;6.88;6.38;;;;;;;32.59;61.78;100793.91;5029793;28;69175;-47
2023/07/12 04:08:57;;;;;;;6.13;5.63;;;;;;;32.20;61.99;100732.91;5030886;28;65471;-47
2023/07/12 04:11:31;;;;;;;6.40;6.00;;;;;;;32.63;61.91;100797.00;5035263;28;70403;-47
2023/07/12 04:14:02;;;;;;;6.57;6.07;;;;;;;32.59;61.92;100774.06;5027899;28;66828;-47
2023/07/12 04:16:33;;;;;;;6.22;5.82;;;;;;;32.62;61.67;100770.88;5031494;28;69241;-46
2023/07/12 04:19:04;;;;;;;6.13;5.57;;;;;;;32.68;61.69;100781.66;5031761;28;66082;-46
2023/07/12 04:21:35;;;;;;;7.68;5.53;;;;;;;32.68;61.72;100772.66;5034051;28;71247;-47
2023/07/12 04:24:06;;;;;;;6.50;5.68;;;;;;;32.73;61.57;100780.91;5036956;28;65584;-48
2023/07/12 04:26:37;;;;;;;9.75;6.10;;;;;;;32.74;61.59;100776.34;5030983;28;70005;-47
2023/07/12 04:29:08;;;;;;;6.63;6.15;;;;;;;32.75;61.75;100778.81;5036121;28;65065;-47
2023/07/12 04:31:40;;;;;;;6.38;5.80;;;;;;;32.77;61.63;100771.25;5037360;28;70410;-48
2023/07/12 04:34:10;;;;;;;;;;;;;;;32.47;62.48;100777.59;5029264;28;65650;-46
2023/07/12 04:36:53;;;;;;;5.70;5.30;;;;;;;32.73;61.54;100764.63;5033254;28;70356;-47
2023/07/12 04:39:24;;;;;;;5.55;5.15;;;;;;;32.82;61.39;100770.53;5031286;28;66032;-47
2023/07/12 04:41:55;;;;;;;6.00;5.60;;;;;;;32.82;61.34;100774.09;5030039;28;70569;-47
2023/07/12 04:44:26;;;;;;;5.28;4.88;;;;;;;32.74;61.22;100765.47;5031771;28;66561;-47
2023/07/12 04:46:57;;;;;;;5.32;5.03;;;;;;;32.87;61.17;100766.03;5034720;28;69049;-46
2023/07/12 04:49:28;;;;;;;5.63;5.22;;;;;;;32.82;61.21;100746.06;5037887;28;64958;-46
2023/07/12 04:51:59;;;;;;;6.07;5.63;;;;;;;32.94;61.37;100760.50;5027880;28;70041;-46
2023/07/12 04:54:30;;;;;;;;;;;;;;;32.64;62.25;100755.19;5033286;28;64952;-47
2023/07/12 04:57:01;;;;;;;5.13;4.82;;;;;;;32.93;61.22;100745.25;5040606;28;70428;-45
2023/07/12 04:59:33;;;;;;;;;;;;;;;32.67;62.17;100743.84;5037537;28;65381;-46
2023/07/12 05:02:04;;;;;;;5.25;4.78;;;;;;;32.97;61.13;100737.47;5032213;28;70280;-48
2023/07/12 05:04:35;;;;;;;;;;;;;;;32.69;62.35;100739.00;5033563;28;66212;-46
2023/07/12 05:07:09;;;;;;;5.05;4.75;;;;;;;32.99;61.25;100735.31;5034996;28;70053;-47
2023/07/12 05:09:40;;;;;;;4.82;4.53;;;;;;;33.01;60.92;100728.59;5031688;28;67040;-47
2023/07/12 05:12:12;;;;;;;4.88;4.55;;;;;;;33.06;61.00;100726.00;5029415;28;69310;-47
2023/07/12 05:14:42;;;;;;;4.80;4.50;;;;;;;33.03;61.15;100714.78;5037331;28;66255;-46
2023/07/12 05:17:13;;;;;;;5.85;5.38;;;;;;;33.03;60.87;100710.19;5036652;28;69947;-47
2023/07/12 05:19:44;;;;;;;5.00;4.68;;;;;;;33.11;60.97;100717.16;5034672;28;65438;-47
2023/07/12 05:22:16;;;;;;;4.97;4.30;;;;;;;32.77;60.53;100646.31;5033238;28;71425;-47
2023/07/12 05:24:47;;;;;;;4.50;4.20;;;;;;;33.12;60.83;100697.03;5039056;28;66271;-47
2023/07/12 05:27:17;;;;;;;4.70;4.30;;;;;;;33.21;60.81;100700.22;5041598;28;69139;-47
2023/07/12 05:29:49;;;;;;;4.65;4.35;;;;;;;33.23;60.88;100687.22;5040533;28;65353;-48
2023/07/12 05:32:20;;;;;;;5.43;4.43;;;;;;;33.26;60.65;100682.13;5039799;28;69397;-46
2023/07/12 05:34:51;;;;;;;4.93;4.43;;;;;;;33.08;60.52;100646.97;5042865;28;66512;-46
2023/07/12 05:37:22;;;;;;;5.82;4.45;;;;;;;33.32;60.46;100683.03;5034838;28;70143;-47
2023/07/12 05:39:59;;;;;;;6.90;3.90;;;;;;;33.34;60.59;100683.63;5040646;28;66355;-46
2023/07/12 05:42:31;;;;;;;4.28;3.97;;;;;;;33.25;60.33;100666.88;5033460;28;69488;-46
2023/07/12 05:45:02;;;;;;;;;;;;;;;33.09;61.18;100689.38;5037227;28;66402;-47
2023/07/12 05:47:33;;;;;;;4.07;3.60;;;;;;;33.22;60.36;100653.78;5036988;28;70353;-46
2023/07/12 05:50:06;;;;;;;4.05;3.75;;;;;;;33.42;60.37;100674.28;5035785;28;65906;-46
2023/07/12 05:52:37;;;;;;;4.35;3.95;;;;;;;32.98;60.30;100597.81;5037106;28;70489;-46
2023/07/12 05:55:11;;;;;;;4.05;3.78;;;;;;;32.85;60.08;100578.03;5030682;28;66032;-47
2023/07/12 05:57:42;;;;;;;3.88;3.65;;;;;;;33.55;60.32;100684.91;5030849;28;69568;-47
2023/07/12 06:00:14;;;;;;;4.35;4.05;;;;;;;33.41;60.18;100648.97;5035448;28;66034;-46
2023/07/12 06:02:45;;;;;;;4.40;4.10;;;;;;;33.56;59.98;100675.66;5034875;28;69399;-47
2023/07/12 06:05:18;;;;;;;;;;;;;;;33.35;60.75;100680.69;5033830;28;65968;-48
2023/07/12 06:07:50;;;;;;;3.70;3.40;;;;;;;33.64;60.20;100677.97;5037601;28;71006;-46
2023/07/12 06:10:21;;;;;;;3.58;3.33;;;;;;;33.71;60.00;100678.66;5036685;28;65863;-47
2023/07/12 06:12:53;;;;;;;4.07;3.78;;;;;;;33.66;60.02;100662.25;5036026;28;71002;-46
2023/07/12 06:15:24;;;;;;;;;;;;;;;33.52;60.42;100674.47;5037757;28;66607;-46
2023/07/12 06:17:56;;;;;;;3.60;3.30;;;;;;;33.79;59.53;100669.25;5034962;28;70169;-47
2023/07/12 06:20:27;;;;;;;3.55;3.25;;;;;;;33.48;59.63;100605.31;5033913;28;66160;-46
2023/07/12 06:22:59;;;;;;;3.80;3.47;;;;;;;33.88;59.70;100661.50;5035087;28;70047;-47
2023/07/12 06:25:30;;;;;;;3.65;3.42;;;;;;;33.91;59.40;100670.03;5030857;28;66464;-47
2023/07/12 06:28:01;;;;;;;6.13;3.38;;;;;;;33.95;59.50;100659.47;5035858;28;69219;-46
2023/07/12 06:30:32;;;;;;;3.60;3.30;;;;;;;33.93;59.71;100651.53;5035030;28;65488;-47
2023/07/12 06:33:04;;;;;;;3.50;3.30;;;;;;;34.03;59.30;100654.44;5033547;28;71149;-48
2023/07/12 06:35:35;;;;;;;4.32;3.45;;;;;;;33.99;59.67;100630.69;5035780;28;65297;-47
2023/07/12 06:38:05;;;;;;;3.20;3.00;;;;;;;34.00;59.33;100622.28;5050206;28;70220;-47
2023/07/12 06:40:38;;;;;;;3.53;3.33;;;;;;;33.63;58.85;100562.09;5031912;28;66883;-46
2023/07/12 06:43:11;;;;;;;3.63;3.33;;;;;;;34.20;59.22;100638.13;5033248;28;70586;-47
2023/07/12 06:45:46;;;;;;;6.80;3.72;;;;;;;34.21;58.66;100622.63;5029927;28;66401;-47
2023/07/12 06:48:18;;;;;;;3.50;3.30;;;;;;;34.29;58.86;100629.53;5031077;28;70733;-46
2023/07/12 06:50:49;;;;;;;3.35;3.08;;;;;;;34.17;59.04;100605.97;5032092;28;65879;-47
2023/07/12 06:53:20;;;;;;;3.00;2.80;;;;;;;34.32;58.54;100624.41;5030913;28;70499;-45
2023/07/12 06:55:51;;;;;;;3.03;2.83;;;;;;;34.37;58.83;100616.31;5039008;28;65611;-47
2023/07/12 06:58:22;;;;;;;3.95;3.47;;;;;;;34.42;58.58;100602.78;5038402;28;69503;-47
2023/07/12 07:00:54;;;;;;;3.03;2.83;;;;;;;34.47;58.46;100618.38;5039471;28;65734;-47
2023/07/12 07:03:25;;;;;;;3.00;2.80;;;;;;;34.51;58.98;100603.16;5039934;28;70256;-47
2023/07/12 07:05:56;;;;;;;2.85;2.65;;;;;;;34.57;58.30;100591.28;5036597;28;66451;-47
2023/07/12 07:08:30;;;;;;;3.80;3.25;;;;;;;34.15;58.35;100510.09;5034274;28;70346;-47
2023/07/12 07:11:02;;;;;;;3.05;2.85;;;;;;;34.54;58.19;100561.00;5014580;28;65785;-47
2023/07/12 07:13:33;;;;;;;4.30;3.17;;;;;;;34.67;57.77;100575.09;5029619;28;70148;-47
2023/07/12 07:16:05;;;;;;;3.08;2.88;;;;;;;34.70;58.30;100574.56;5037420;28;66371;-46
2023/07/12 07:18:36;;;;;;;2.70;2.50;;;;;;;34.68;58.17;100563.09;5038096;28;70008;-46
2023/07/12 07:21:07;;;;;;;3.15;2.90;;;;;;;34.79;57.99;100563.22;5017061;28;65934;-47
2023/07/12 07:23:39;;;;;;;3.38;2.63;;;;;;;34.83;58.13;100558.94;5034525;28;69704;-47
2023/07/12 07:26:11;;;;;;;2.58;2.38;;;;;;;34.68;57.90;100524.97;5035837;28;66204;-47
2023/07/12 07:28:43;;;;;;;2.60;2.40;;;;;;;34.82;57.30;100552.63;5024803;28;70703;-47
2023/07/12 07:31:14;;;;;;;2.67;2.47;;;;;;;34.88;57.35;100551.63;5029445;28;66416;-47
2023/07/12 07:33:47;;;;;;;3.10;2.90;;;;;;;34.89;57.74;100547.00;5027780;28;69491;-47
2023/07/12 07:36:18;;;;;;;4.93;2.20;;;;;;;34.53;57.70;100478.47;5038765;28;65462;-47
2023/07/12 07:38:49;;;;;;;2.53;2.33;;;;;;;34.93;57.17;100542.69;5031351;28;70265;-47
2023/07/12 07:41:20;;;;;;;2.97;2.67;;;;;;;34.94;57.08;100544.34;5029436;28;66096;-47
2023/07/12 07:43:51;;;;;;;2.22;2.03;;;;;;;34.95;57.19;100537.81;5035893;28;70257;-47
2023/07/12 07:46:23;;;;;;;2.40;2.20;;;;;;;34.96;57.75;100525.00;5032644;28;66433;-48
2023/07/12 07:48:54;;;;;;;2.53;2.33;;;;;;;34.99;57.13;100524.47;5031321;28;69872;-47
2023/07/12 07:51:27;;;;;;;2.40;2.20;;;;;;;34.96;57.38;100525.81;5028508;28;66551;-47
2023/07/12 07:53:58;;;;;;;3.38;2.45;;;;;;;34.99;57.32;100508.94;5027942;28;69793;-47
2023/07/12 07:56:29;;;;;;;2.47;2.15;;;;;;;35.03;57.31;100503.81;5037252;28;66972;-46
2023/07/12 07:59:00;;;;;;;2.40;2.20;;;;;;;34.93;56.94;100488.16;5035865;28;69599;-47
2023/07/12 08:01:32;;;;;;;2.83;2.20;;;;;;;35.07;56.69;100511.22;5035819;28;66580;-47
2023/07/12 08:04:04;;;;;;;2.30;2.10;;;;;;;34.61;57.02;100436.38;5027838;28;69505;-47
2023/07/12 08:06:38;;;;;;;3.83;2.17;;;;;;;35.08;56.68;100512.91;5037145;28;65825;-46
2023/07/12 08:09:09;;;;;;;2.47;2.10;;;;;;;35.09;56.87;100514.53;5033194;28;69983;-47
2023/07/12 08:11:40;;;;;;;2.38;2.28;;;;;;;35.09;57.08;100517.25;5033885;28;66518;-47
2023/07/12 08:14:11;;;;;;;2.25;2.05;;;;;;;35.06;56.54;100509.59;5033749;28;70298;-46
2023/07/12 08:16:44;;;;;;;1.73;1.63;;;;;;;35.12;56.31;100516.75;5032043;28;67468;-47
2023/07/12 08:19:16;;;;;;;2.30;2.10;;;;;;;35.16;56.60;100527.13;5031680;28;70154;-48
2023/07/12 08:21:49;;;;;;;3.83;1.98;;;;;;;35.17;56.29;100512.44;5033329;28;66811;-46
2023/07/12 08:24:21;;;;;;;2.55;2.25;;;;;;;35.17;56.22;100509.72;5034846;28;70102;-46
2023/07/12 08:26:53;;;;;;;5.30;2.45;;;;;;;34.83;56.16;100458.13;5028430;28;66207;-47
2023/07/12 08:29:36;;;;;;;2.85;1.67;;;;;;;34.99;56.71;100484.41;5023245;28;69628;-47
2023/07/12 08:32:08;;;;;;;2.20;2.00;;;;;;;35.20;56.38;100509.19;5030079;28;66761;-47
2023/07/12 08:34:40;;;;;;;2.20;2.00;;;;;;;35.07;56.66;100494.88;5029539;28;69906;-47
2023/07/12 08:37:11;;;;;;;3.00;1.83;;;;;;;35.18;56.19;100500.44;5030045;28;67354;-47
2023/07/12 08:39:42;;;;;;;;;;;;;;;34.96;56.59;100505.91;5026444;28;70195;-47
2023/07/12 08:42:18;;;;;;;2.17;1.98;;;;;;;35.02;56.53;100489.38;5026150;28;66539;-46
2023/07/12 08:44:50;;;;;;;2.72;2.08;;;;;;;35.02;56.80;100492.09;5030958;28;69405;-47
2023/07/12 08:47:30;;;;;;;2.53;1.65;;;;;;;35.19;56.33;100523.88;5028124;28;66488;-47
2023/07/12 08:50:04;;;;;;;2.20;2.00;;;;;;;35.20;56.16;100503.72;5031946;28;69663;-47
2023/07/12 08:52:36;;;;;;;1.80;1.70;;;;;;;35.22;56.10;100501.56;5022118;28;66350;-48
2023/07/12 08:55:28;;;;;;;1.90;1.70;;;;;;;35.11;55.77;100500.66;5028901;28;70123;-47
2023/07/12 08:58:14;;;;;;;1.85;1.75;;;;;;;35.19;56.38;100508.38;5036870;28;65941;-46
2023/07/12 09:00:52;;;;;;;2.72;1.75;;;;;;;35.20;55.98;100520.91;5026738;28;69562;-47
2023/07/12 09:03:24;;;;;;;1.80;1.70;;;;;;;35.21;56.46;100529.91;5032407;28;64523;-47
2023/07/12 09:05:55;;;;;;;3.28;1.90;;;;;;;35.10;56.38;100509.91;5029632;28;69371;-46
2023/07/12 09:08:43;;;;;;;2.17;1.70;;;;;;;35.00;55.82;100499.69;5036226;28;65682;-47
2023/07/12 09:11:19;;;;;;;2.38;1.83;;;;;;;35.18;56.46;100516.78;5036015;28;70090;-46
2023/07/12 09:13:50;;;;;;;1.83;1.58;;;;;;;35.23;56.42;100503.22;5041539;28;65769;-46
2023/07/12 09:16:29;;;;;;;2.15;1.95;;;;;;;35.07;56.11;100470.34;5031900;28;70212;-47
2023/07/12 09:19:27;;;;;;;1.55;1.45;;;;;;;34.63;56.31;100407.78;5036704;28;66565;-49
2023/07/12 09:22:01;;;;;;;2.40;1.83;;;;;;;34.68;55.75;100409.72;5031882;28;70095;-47
2023/07/12 09:24:41;;;;;;;1.77;1.65;;;;;;;35.23;56.27;100492.31;5034299;28;65610;-47
2023/07/12 09:27:19;;;;;;;2.08;1.88;;;;;;;35.19;56.31;100485.72;5023000;28;69121;-46
2023/07/12 09:30:02;;;;;;;2.50;2.22;;;;;;;35.16;55.82;100497.13;5036282;28;66447;-48
2023/07/12 09:32:36;;;;;;;6.78;2.40;;;;;;;35.22;56.54;100504.31;5036743;28;69354;-47
2023/07/12 09:35:37;;;;;;;4.47;1.65;;;;;;;35.13;56.32;100515.69;5025537;28;66837;-47
2023/07/12 09:38:12;;;;;;;8.52;1.58;;;;;;;34.77;56.01;100445.50;5022507;28;70475;-48
2023/07/12 09:40:46;;;;;;;1.92;1.77;;;;;;;34.82;56.46;100459.19;5034570;28;68022;-48
2023/07/12 09:43:26;;;;;;;1.80;1.50;;;;;;;35.17;55.96;100520.63;5036107;28;70193;-47
2023/07/12 09:46:30;;;;;;;2.80;2.00;;;;;;;35.13;56.15;100514.84;5037435;28;65968;-47
2023/07/12 09:49:04;;;;;;;2.30;2.03;;;;;;;35.09;55.98;100508.25;5033168;28;70183;-48
2023/07/12 09:51:54;;;;;;;2.05;1.75;;;;;;;35.09;56.40;100514.53;5036088;28;66413;-51
2023/07/12 09:54:34;;;;;;;2.25;1.70;;;;;;;35.17;56.12;100509.72;5035852;28;69735;-48
2023/07/12 09:57:41;;;;;;;1.70;1.60;;;;;;;35.08;56.64;100507.44;5034784;28;65745;-48
2023/07/12 10:00:39;;;;;;;1.80;1.70;;;;;;;34.99;56.68;100495.31;5035524;28;67894;-47
2023/07/12 10:03:22;;;;;;;4.93;1.60;;;;;;;35.07;56.94;100516.69;5032167;28;66406;-47
2023/07/12 10:06:02;;;;;;;2.25;1.55;;;;;;;35.14;56.79;100527.41;5034469;28;69357;-46
2023/07/12 10:09:00;;;;;;;6.55;1.80;;;;;;;34.96;56.57;100514.09;5032846;28;66734;-46
2023/07/12 10:12:08;;;;;;;2.55;2.05;;;;;;;34.63;57.41;100467.72;5053018;28;69516;-47
2023/07/12 10:14:42;;;;;;;3.75;2.05;;;;;;;35.10;57.15;100553.50;5035295;28;66910;-47
2023/07/12 10:17:19;;;;;;;2.13;1.92;;;;;;;35.07;58.03;100543.94;5035315;28;68991;-47
2023/07/12 10:19:54;;;;;;;2.00;1.80;;;;;;;34.99;57.28;100519.03;5035910;28;65274;-47
2023/07/12 10:22:32;;;;;;;3.13;2.28;;;;;;;35.10;57.88;100543.47;5034859;28;70249;-46
2023/07/12 10:25:26;;;;;;;2.40;2.20;;;;;;;34.65;58.02;100481.06;5031972;28;66134;-47
2023/07/12 10:28:05;;;;;;;3.00;2.38;;;;;;;35.07;58.20;100543.94;5034743;28;70006;-46
2023/07/12 10:30:38;;;;;;;2.63;2.30;;;;;;;34.95;57.91;100524.19;5035032;28;66594;-47
2023/07/12 10:33:32;;;;;;;3.38;1.90;;;;;;;34.63;58.28;100494.97;5032855;28;69572;-47
2023/07/12 10:36:16;;;;;;;4.43;2.38;;;;;;;35.02;58.05;100557.50;5033752;28;65271;-48
2023/07/12 10:38:49;;;;;;;1.95;1.77;;;;;;;35.06;58.02;100546.94;5035009;28;69645;-46
2023/07/12 10:41:28;;;;;;;2.40;2.20;;;;;;;34.51;58.36;100464.28;5035448;28;66829;-45
2023/07/12 10:44:34;;;;;;;2.95;2.50;;;;;;;34.90;58.56;100538.56;5036728;28;70572;-46
2023/07/12 10:47:12;;;;;;;2.30;2.10;;;;;;;34.87;58.23;100532.81;5012433;28;65731;-47
2023/07/12 10:49:58;;;;;;;2.20;2.00;;;;;;;34.48;58.58;100459.34;5039571;28;70134;-46
2023/07/12 10:52:36;;;;;;;2.65;2.45;;;;;;;35.00;58.55;100551.50;5040247;28;65353;-46
2023/07/12 10:55:40;;;;;;;3.05;2.85;;;;;;;34.38;58.50;100453.75;5038607;28;70433;-46
2023/07/12 10:59:10;;;;;;;2.80;2.50;;;;;;;34.38;59.37;100470.94;5037664;28;65851;-45
2023/07/12 11:01:42;;;;;;;3.08;2.85;;;;;;;34.97;58.69;100543.00;5014617;28;70009;-46
2023/07/12 11:04:14;;;;;;;;;;;;;;;34.69;59.82;100553.88;5027991;28;66410;-46
2023/07/12 11:07:20;;;;;;;2.88;2.67;;;;;;;34.79;59.09;100541.44;5034775;28;70303;-46
2023/07/12 11:09:54;;;;;;;4.00;3.60;;;;;;;34.70;59.27;100522.81;5035487;28;66719;-46
2023/07/12 11:12:32;;;;;;;4.30;3.83;;;;;;;34.91;59.28;100555.75;5033508;28;70111;-46
2023/07/12 11:15:12;;;;;;;5.20;3.53;;;;;;;34.89;59.04;100557.91;5034754;28;66402;-46
2023/07/12 11:18:01;;;;;;;5.60;4.50;;;;;;;34.82;59.83;100565.44;5036524;28;69925;-47
2023/07/12 11:20:54;;;;;;;6.57;4.90;;;;;;;34.81;59.12;100566.53;5036022;28;66529;-47
2023/07/12 11:23:52;;;;;;;5.68;5.28;;;;;;;34.70;59.58;100569.13;5026635;28;70326;-47
2023/07/12 11:26:33;;;;;;;6.53;5.90;;;;;;;34.80;59.36;100592.13;5040110;28;66156;-46
2023/07/12 11:29:45;;;;;;;6.20;5.68;;;;;;;34.67;59.92;100577.81;5037716;28;69597;-46
2023/07/12 11:32:32;;;;;;;6.18;5.72;;;;;;;34.16;59.77;100479.13;5016422;28;66539;-53
2023/07/12 11:35:11;;;;;;;7.00;6.30;;;;;;;34.20;60.07;100485.69;5028960;28;70219;-49
2023/07/12 11:37:47;;;;;;;7.00;6.40;;;;;;;34.31;59.80;100507.59;5037658;28;66278;-46
2023/07/12 11:40:22;;;;;;;8.98;6.80;;;;;;;34.75;59.51;100575.72;5023306;28;70149;-48
2023/07/12 11:42:53;;;;;;;8.63;7.22;;;;;;;34.74;59.12;100565.88;5029167;28;66403;-47
2023/07/12 11:45:25;;;;;;;9.93;7.05;;;;;;;34.67;59.69;100566.91;5027808;28;70006;-46
2023/07/12 11:47:57;;;;;;;11.13;7.13;;;;;;;34.66;59.89;100570.72;5027159;28;65773;-47
2023/07/12 11:50:29;;;;;;;8.02;7.25;;;;;;;34.65;59.90;100569.06;5036887;28;69915;-48
2023/07/12 11:53:03;;;;;;;11.18;8.18;;;;;;;34.66;60.20;100580.81;5035880;28;65848;-46
2023/07/12 11:55:35;;;;;;;9.00;8.20;;;;;;;34.07;59.74;100488.78;5032689;28;69973;-46
2023/07/12 11:58:16;;;;;;;10.15;7.97;;;;;;;34.59;60.14;100596.50;5028102;28;66275;-48
2023/07/12 12:00:49;;;;;;;9.10;8.18;;;;;;;34.03;59.72;100484.88;5044864;28;70695;-46
2023/07/12 12:03:25;;;;;;;9.68;8.82;;;;;;;34.61;59.59;100589.72;5027824;28;65604;-47